GBSUO / G-BSUO 7700 Squawk Report (20th of February, 2018)

Time Lat Lon Altitude Heading Speed Vertical Rate
2018-02-20 11:36:16 GMT 56.183819 -3.306050 1,250
2018-02-20 11:32:27 GMT 56.199680 -3.353850 1,675 22 34
2018-02-20 11:32:19 GMT 56.199100 -3.356280 1,725 22 34
2018-02-20 11:32:11 GMT 56.198750 -3.357530 1,800 22 34
2018-02-20 11:32:00 GMT 56.197369 -3.362880 1,775 22 34
2018-02-20 11:31:33 GMT 56.194172 -3.371530 1,775 22 34
2018-02-20 11:31:28 GMT 56.193501 -3.370700 1,800 22 34
2018-02-20 11:31:16 GMT 56.192532 -3.366380 1,800 22 34
2018-02-20 11:30:59 GMT 56.195049 -3.360450 1,825 22 34
2018-02-20 11:29:10 GMT 56.204479 -3.352120 1,950 22 34
2018-02-20 11:29:04 GMT 56.204369 -3.354330 1,975 22 34
2018-02-20 11:28:53 GMT 56.203480 -3.356980 2,000 22 34
2018-02-20 11:28:26 GMT 56.199150 -3.358020 1,950 22 34
2018-02-20 11:28:07 GMT 56.194920 -3.356950 1,950 22 34
2018-02-20 11:27:48 GMT 56.193371 -3.356680 1,875 22 34
2018-02-20 11:27:38 GMT 56.191921 -3.357330 1,850 22 34
2018-02-20 11:27:35 GMT 56.191002 -3.358770 1,850 22 34
2018-02-20 11:27:25 GMT 56.189529 -3.361200 1,825 22 34
2018-02-20 11:27:14 GMT 56.188000 -3.364130 1,825 22 34
2018-02-20 11:27:03 GMT 56.186520 -3.366980 1,875 22 34
2018-02-20 11:26:55 GMT 56.185570 -3.368830 1,950 22 34
2018-02-20 11:26:44 GMT 56.184151 -3.370880 1,975 22 34
2018-02-20 11:26:27 GMT 56.181198 -3.372770 2,000 22 34
2018-02-20 11:26:23 GMT 56.180672 -3.372900 2,050 22 34
2018-02-20 11:26:15 GMT 56.178902 -3.371700 2,075 22 34
2018-02-20 11:26:05 GMT 56.178120 -3.369530 2,075 22 34
2018-02-20 11:25:52 GMT 56.176880 -3.367380 2,075 22 34
2018-02-20 11:25:43 GMT 56.176170 -3.367600 2,125 22 34
2018-02-20 11:25:34 GMT 56.174000 -3.369080 2,499 22 34
2018-02-20 11:25:17 GMT 56.170601 -3.372520 2,175 17 25
2018-02-20 11:25:07 GMT 56.170170 -3.372930 2,200 17 25
2018-02-20 11:25:00 GMT 56.169472 -3.373670 2,200 17 25
2018-02-20 11:24:49 GMT 56.168251 -3.377580 2,200 17 25
2018-02-20 11:24:41 GMT 56.167931 -3.380170 2,225 17 25
2018-02-20 11:24:33 GMT 56.167969 -3.382550 2,250 17 25
2018-02-20 11:24:17 GMT 56.169930 -3.391930 2,300 17 25
2018-02-20 11:23:58 GMT 56.173931 -3.398330 2,350 17 25
2018-02-20 11:23:52 GMT 56.175880 -3.399600 2,375 17 25
2018-02-20 11:23:35 GMT 56.180229 -3.401130 2,425 17 25
2018-02-20 11:23:31 GMT 56.182049 -3.401650 2,450 17 25
2018-02-20 11:23:21 GMT 56.185982 -3.402670 2,475 17 25
2018-02-20 11:23:02 GMT 56.192619 -3.404380 2,500 17 25
2018-02-20 11:22:58 GMT 56.193329 -3.404630 2,550 17 25
2018-02-20 11:22:47 GMT 56.197880 -3.404720 2,575 17 25
2018-02-20 11:22:29 GMT 56.202900 -3.401980 2,675 17 25
2018-02-20 11:22:20 GMT 56.205650 -3.400180 2,725 17 25
2018-02-20 11:22:05 GMT 56.209381 -3.397150 2,775 17 25
2018-02-20 11:21:59 GMT 56.211979 -3.395380 2,800 17 25
2018-02-20 11:21:45 GMT 56.215069 -3.393630 2,825 17 25
2018-02-20 11:21:38 GMT 56.217800 -3.392280 2,850 17 25
2018-02-20 11:21:29 GMT 56.220051 -3.391250 2,850 17 25
2018-02-20 11:21:20 GMT 56.224220 -3.388870 2,900 17 25
2018-02-20 11:21:08 GMT 56.227348 -3.387420 2,925 17 25
2018-02-20 11:20:58 GMT 56.229671 -3.386380 2,950 17 25
2018-02-20 11:20:46 GMT 56.236420 -3.383550 2,925 17 25
2018-02-20 11:20:38 GMT 56.236771 -3.383400 3,100 17 25
2018-02-20 11:20:26 GMT 56.240631 -3.381000 3,100 17 25
2018-02-20 11:20:17 GMT 56.243099 -3.378580 3,175 17 25
2018-02-20 11:20:08 GMT 56.245781 -3.375420 3,275 17 25
2018-02-20 11:19:58 GMT 56.246319 -3.372800 3,375 17 25
2018-02-20 11:19:48 GMT 56.245098 -3.372350 3,425 17 25
2018-02-20 11:19:37 GMT 56.243469 -3.372920 3,500 17 25
2018-02-20 11:19:27 GMT 56.242649 -3.372880 3,550 17 25
2018-02-20 11:19:17 GMT 56.241470 -3.372970 3,920 17 25
2018-02-20 11:19:06 GMT 56.240200 -3.373870 3,700 43 29
2018-02-20 11:18:56 GMT 56.237869 -3.375470 3,725 43 29
2018-02-20 11:18:45 GMT 56.237202 -3.376550 3,800 43 29
2018-02-20 11:18:35 GMT 56.236351 -3.378050 4,205 43 29
2018-02-20 11:18:25 GMT 56.235451 -3.379200 3,950 92 47
2018-02-20 11:18:12 GMT 56.234428 -3.379700 4,025 92 47
2018-02-20 11:18:04 GMT 56.233101 -3.380650 4,100 92 47
2018-02-20 11:17:53 GMT 56.232552 -3.381480 4,175 92 47
2018-02-20 11:17:45 GMT 56.232220 -3.383970 4,500 92 47
2018-02-20 11:17:35 GMT 56.233650 -3.389250 4,300 35 29
2018-02-20 11:17:24 GMT 56.239269 -3.390780 4,350 35 29
2018-02-20 11:17:12 GMT 56.240501 -3.389730 4,400 35 29
2018-02-20 11:17:04 GMT 56.242519 -3.387120 4,450 35 29
2018-02-20 11:16:53 GMT 56.244751 -3.381670 4,525 35 29
2018-02-20 11:16:41 GMT 56.245331 -3.378770 4,575 35 29
2018-02-20 11:16:31 GMT 56.245022 -3.376430 4,600 35 29
2018-02-20 11:16:22 GMT 56.244019 -3.376650 4,650 35 29
2018-02-20 11:16:12 GMT 56.242981 -3.377230 4,700 35 29
2018-02-20 11:16:02 GMT 56.242119 -3.377770 4,775 35 29
2018-02-20 11:15:51 GMT 56.240768 -3.379370 4,825 35 29
2018-02-20 11:15:42 GMT 56.239948 -3.380980 4,875 35 29
2018-02-20 11:15:33 GMT 56.239079 -3.383080 5,327 35 29
2018-02-20 11:15:22 GMT 56.237751 -3.383380 4,950 250 43
2018-02-20 11:15:11 GMT 56.236950 -3.381320 5,025 250 43
2018-02-20 11:15:02 GMT 56.237282 -3.377780 5,327 250 43
2018-02-20 11:14:50 GMT 56.237900 -3.374330 5,125 331 29
2018-02-20 11:14:40 GMT 56.238430 -3.369270 5,125 331 29
2018-02-20 11:14:31 GMT 56.238579 -3.367430 5,150 331 29
2018-02-20 11:14:18 GMT 56.238419 -3.363030 5,150 331 29
2018-02-20 11:14:11 GMT 56.237099 -3.360700 5,409 331 29
2018-02-20 11:13:58 GMT 56.236271 -3.359920 5,225 294 34
2018-02-20 11:13:48 GMT 56.235130 -3.358570 5,225 294 34
2018-02-20 11:13:40 GMT 56.233582 -3.355300 5,250 294 34
2018-02-20 11:13:30 GMT 56.233452 -3.354770 5,524 294 34
2018-02-20 11:13:18 GMT 56.233730 -3.348630 5,375 194 75
2018-02-20 11:13:09 GMT 56.236080 -3.345880 5,710 194 75
2018-02-20 11:13:00 GMT 56.237148 -3.345570 5,475 128 69
2018-02-20 11:12:47 GMT 56.241650 -3.348020 5,525 128 69
2018-02-20 11:12:40 GMT 56.243870 -3.351680 5,740 128 69
2018-02-20 11:12:29 GMT 56.245178 -3.355930 5,688 108 60
2018-02-20 11:12:19 GMT 56.245602 -3.360530 5,806 88 51
2018-02-20 11:12:08 GMT 56.245029 -3.364170 5,596 50 33
2018-02-20 11:11:57 GMT 56.243420 -3.364720 5,375 310 26
2018-02-20 11:11:47 GMT 56.242481 -3.363020 5,501 310 26
2018-02-20 11:11:36 GMT 56.241920 -3.361700 5,275 296 30
2018-02-20 11:11:28 GMT 56.241428 -3.360200 5,428 296 30
2018-02-20 11:11:15 GMT 56.240768 -3.356620 5,175 219 67
2018-02-20 11:11:01 GMT 56.241798 -3.351280 5,150 219 67
2018-02-20 11:10:56 GMT 56.243229 -3.349330 5,150 219 67
2018-02-20 11:10:43 GMT 56.250580 -3.353070 5,150 219 67
2018-02-20 11:10:37 GMT 56.249222 -3.350530 5,100 219 67
2018-02-20 11:10:20 GMT 56.251621 -3.358030 5,075 219 67
2018-02-20 11:10:16 GMT 56.251518 -3.359480 5,025 219 67
2018-02-20 11:10:05 GMT 56.250370 -3.361870 4,950 219 67
2018-02-20 11:09:53 GMT 56.249352 -3.360180 4,900 219 67
2018-02-20 11:09:45 GMT 56.249329 -3.359120 4,850 219 67
2018-02-20 11:09:36 GMT 56.249748 -3.356220 4,775 219 67
2018-02-20 11:09:21 GMT 56.252880 -3.349370 4,725 219 67
2018-02-20 11:09:15 GMT 56.254131 -3.347280 4,650 219 67
2018-02-20 11:09:02 GMT 56.256119 -3.344200 4,600 219 67
2018-02-20 11:08:54 GMT 56.258221 -3.341100 4,550 219 67
2018-02-20 11:08:45 GMT 56.260181 -3.338300 4,759 219 67
2018-02-20 11:08:23 GMT 56.265331 -3.329680 4,887 229 61
2018-02-20 11:08:14 GMT 56.266701 -3.326820 4,982 233 53
2018-02-20 11:08:03 GMT 56.267899 -3.322880 4,825 317 32
2018-02-20 11:07:54 GMT 56.267422 -3.318050 5,304 317 32
2018-02-20 11:07:44 GMT 56.266781 -3.317450 5,369 353 30
2018-02-20 11:07:34 GMT 56.265579 -3.319150 5,543 83 46
2018-02-20 11:07:23 GMT 56.267101 -3.325130 5,475 121 67
2018-02-20 11:07:13 GMT 56.268551 -3.328770 5,829 121 67
2018-02-20 11:07:03 GMT 56.270020 -3.333680 6,104 111 63
2018-02-20 11:06:51 GMT 56.269630 -3.340930 6,052 67 48
2018-02-20 11:06:43 GMT 56.268871 -3.343220 6,088 47 43
2018-02-20 11:06:32 GMT 56.267670 -3.344750 6,157 30 34
2018-02-20 11:06:20 GMT 56.265980 -3.346250 6,232 20 33
2018-02-20 11:06:10 GMT 56.264278 -3.347300 6,307 19 35
2018-02-20 11:06:01 GMT 56.262119 -3.348870 6,324 23 39
2018-02-20 11:05:49 GMT 56.261101 -3.349730 6,301 27 41
2018-02-20 11:05:41 GMT 56.259232 -3.351700 6,284 34 39
2018-02-20 11:05:30 GMT 56.257900 -3.353730 6,232 43 41
2018-02-20 11:05:16 GMT 56.256279 -3.356480 6,000 52 39
2018-02-20 11:05:08 GMT 56.254120 -3.360580 6,029 52 39
2018-02-20 11:05:00 GMT 56.254230 -3.360300 6,025 51 39
2018-02-20 11:04:46 GMT 56.251820 -3.366350 5,300 59 41
2018-02-20 11:04:39 GMT 56.251400 -3.367520 5,835 59 41
2018-02-20 11:04:20 GMT 56.250050 -3.371830 5,500 61 46
2018-02-20 11:04:09 GMT 56.249001 -3.375100 5,500 61 46
2018-02-20 11:03:58 GMT 56.247971 -3.378420 5,537 61 46
2018-02-20 11:03:49 GMT 56.246929 -3.381780 5,300 308 37
2018-02-20 11:03:38 GMT 56.245628 -3.386150 5,225 308 37
2018-02-20 11:03:29 GMT 56.244968 -3.388680 5,150 308 37
2018-02-20 11:03:17 GMT 56.243149 -3.398500 5,075 308 37
2018-02-20 11:03:08 GMT 56.243530 -3.396420 5,025 308 37
2018-02-20 11:02:58 GMT 56.242802 -3.405700 4,925 308 37
2018-02-20 11:02:45 GMT 56.242920 -3.407250 4,850 308 37
2018-02-20 11:02:34 GMT 56.243900 -3.413170 4,800 308 37
2018-02-20 11:02:27 GMT 56.245770 -3.419050 4,750 308 37
2018-02-20 11:02:16 GMT 56.247471 -3.422450 4,700 308 37
2018-02-20 11:02:06 GMT 56.251270 -3.428280 4,650 308 37
2018-02-20 11:01:57 GMT 56.252781 -3.431250 4,600 308 37
2018-02-20 11:01:45 GMT 56.254452 -3.442400 4,575 308 37
2018-02-20 11:01:37 GMT 56.254200 -3.443100 4,575 308 37
2018-02-20 11:01:26 GMT 56.253780 -3.443680 4,575 308 37
2018-02-20 11:01:13 GMT 56.252121 -3.444150 4,550 308 37
2018-02-20 11:01:04 GMT 56.250778 -3.443730 4,550 308 37
2018-02-20 11:00:54 GMT 56.248322 -3.441700 4,525 308 37
2018-02-20 11:00:39 GMT 56.247150 -3.440250 4,500 308 37
2018-02-20 11:00:34 GMT 56.246529 -3.439000 4,475 308 37
2018-02-20 11:00:25 GMT 56.245220 -3.435080 4,667 308 37
2018-02-20 11:00:14 GMT 56.244518 -3.433700 4,450 237 68
2018-02-20 11:00:04 GMT 56.242329 -3.430470 4,400 237 68
2018-02-20 10:59:54 GMT 56.241821 -3.429700 4,375 237 68
2018-02-20 10:59:43 GMT 56.240582 -3.427370 4,350 237 68
2018-02-20 10:59:34 GMT 56.240021 -3.422150 4,325 237 68
2018-02-20 10:59:20 GMT 56.241219 -3.417630 4,300 237 68
2018-02-20 10:59:12 GMT 56.242828 -3.414000 4,275 237 68
2018-02-20 10:58:59 GMT 56.245201 -3.409080 4,225 237 68
2018-02-20 10:58:50 GMT 56.247501 -3.404470 4,125 237 68
2018-02-20 10:58:43 GMT 56.249630 -3.399230 4,215 237 68
2018-02-20 10:58:31 GMT 56.250778 -3.395970 3,975 20 34
2018-02-20 10:58:20 GMT 56.253368 -3.387680 3,875 20 34
2018-02-20 10:58:11 GMT 56.253731 -3.386380 3,775 20 34
2018-02-20 10:58:00 GMT 56.254902 -3.381920 3,700 20 34
2018-02-20 10:57:50 GMT 56.255821 -3.376270 3,600 20 34
2018-02-20 10:57:18 GMT 56.256180 -3.365350 3,400 20 34
2018-02-20 10:57:05 GMT 56.255920 -3.361180 3,325 20 34
2018-02-20 10:56:57 GMT 56.255901 -3.360180 3,275 20 34
2018-02-20 10:56:49 GMT 56.255829 -3.357580 3,200 20 34
2018-02-20 10:56:37 GMT 56.255150 -3.354400 3,150 20 34
2018-02-20 10:56:28 GMT 56.254150 -3.351600 3,075 20 34
2018-02-20 10:56:18 GMT 56.252918 -3.349580 2,950 20 34
2018-02-20 10:56:08 GMT 56.251301 -3.349030 2,825 20 34
2018-02-20 10:55:58 GMT 56.249748 -3.349880 2,750 20 34
2018-02-20 10:55:48 GMT 56.246571 -3.354870 2,650 20 34
2018-02-20 10:55:38 GMT 56.246422 -3.355250 2,525 20 34
2018-02-20 10:55:25 GMT 56.244350 -3.360250 2,375 20 34
2018-02-20 10:55:17 GMT 56.243172 -3.363320 2,250 20 34
2018-02-20 10:55:03 GMT 56.239231 -3.371350 2,150 20 34
2018-02-20 10:54:54 GMT 56.238972 -3.372280 2,025 20 34
2018-02-20 10:54:44 GMT 56.236679 -3.381580 1,950 20 34
2018-02-20 10:54:26 GMT 56.235580 -3.385130 2,000 20 34
2018-02-20 10:54:16 GMT 56.233650 -3.388320 1,975 20 34
2018-02-20 10:54:06 GMT 56.230701 -3.390280 1,925 20 34
2018-02-20 10:53:53 GMT 56.228619 -3.391500 1,850 20 34
2018-02-20 10:53:44 GMT 56.226921 -3.392900 1,875 20 34
2018-02-20 10:53:31 GMT 56.224098 -3.394870 1,850 20 34
2018-02-20 10:53:25 GMT 56.223480 -3.395350 2,158 20 34
2018-02-20 10:53:13 GMT 56.222050 -3.395770 1,850 261 32
2018-02-20 10:52:56 GMT 56.217602 -3.395820 1,825 261 32
2018-02-20 10:52:35 GMT 56.214729 -3.395850 1,775 261 32
2018-02-20 10:52:30 GMT 56.213100 -3.396020 1,750 261 32
2018-02-20 10:52:10 GMT 56.209000 -3.397380 1,675 261 32
2018-02-20 10:51:06 GMT 56.197868 -3.397280 1,575 261 32
2018-02-20 10:50:58 GMT 56.196949 -3.397080 1,600 261 32
2018-02-20 10:49:58 GMT 56.188202 -3.393050 1,700 261 32
2018-02-20 10:49:36 GMT 56.185120 -3.391500 1,725 261 32
2018-02-20 10:49:28 GMT 56.183880 -3.390730 1,750 261 32
2018-02-20 10:49:15 GMT 56.182571 -3.388930 1,825 261 32
2018-02-20 10:49:04 GMT 56.182129 -3.387200 1,825 261 32
2018-02-20 10:48:59 GMT 56.182079 -3.385330 1,850 261 32
2018-02-20 10:48:39 GMT 56.182529 -3.379880 1,950 261 32
2018-02-20 10:48:28 GMT 56.182781 -3.376420 2,368 261 32
2018-02-20 10:48:16 GMT 56.183029 -3.373380 2,050 60 42
2018-02-20 10:48:06 GMT 56.180630 -3.373570 2,100 60 42
2018-02-20 10:47:51 GMT 56.180271 -3.374200 2,150 60 42
2018-02-20 10:47:48 GMT 56.180000 -3.374620 2,200 60 42
2018-02-20 10:47:35 GMT 56.178379 -3.377150 2,250 60 42
2018-02-20 10:47:26 GMT 56.177071 -3.380930 2,300 60 42
2018-02-20 10:47:17 GMT 56.176498 -3.382830 2,670 60 42
2018-02-20 10:47:06 GMT 56.174580 -3.386120 2,722 27 33
2018-02-20 10:46:57 GMT 56.173771 -3.386630 2,765 8 28
2018-02-20 10:46:43 GMT 56.172249 -3.386230 2,500 31 31
2018-02-20 10:46:31 GMT 56.171551 -3.383800 2,550 31 31
2018-02-20 10:46:24 GMT 56.171970 -3.382420 2,600 31 31
2018-02-20 10:46:03 GMT 56.173828 -3.375250 2,650 31 31
2018-02-20 10:45:49 GMT 56.173069 -3.373770 2,675 31 31
2018-02-20 10:45:39 GMT 56.171829 -3.375070 2,725 31 31
2018-02-20 10:45:34 GMT 56.171181 -3.378280 2,775 31 31
2018-02-20 10:45:22 GMT 56.170799 -3.380020 2,800 31 31
2018-02-20 10:45:14 GMT 56.169899 -3.381770 3,132 31 31
2018-02-20 10:44:54 GMT 56.166470 -3.381320 3,205 313 27
2018-02-20 10:44:36 GMT 56.165970 -3.379980 2,925 265 31
2018-02-20 10:44:33 GMT 56.165878 -3.379580 2,950 265 31
2018-02-20 10:44:23 GMT 56.165730 -3.375980 3,300 265 31
2018-02-20 10:44:14 GMT 56.165878 -3.372680 3,336 267 30
2018-02-20 10:43:56 GMT 56.166100 -3.369430 3,050 246 43
2018-02-20 10:43:50 GMT 56.166271 -3.368550 3,075 246 43
2018-02-20 10:43:36 GMT 56.167519 -3.363000 3,075 246 43
2018-02-20 10:43:31 GMT 56.167671 -3.362330 3,100 246 43
2018-02-20 10:43:22 GMT 56.168480 -3.358970 3,418 246 43
2018-02-20 10:43:05 GMT 56.169479 -3.352650 3,150 84 46
2018-02-20 10:42:56 GMT 56.169552 -3.351220 3,175 84 46
2018-02-20 10:42:45 GMT 56.169430 -3.348100 3,225 84 46
2018-02-20 10:42:39 GMT 56.169281 -3.347220 3,275 84 46
2018-02-20 10:42:26 GMT 56.168350 -3.345650 3,325 84 46
2018-02-20 10:42:16 GMT 56.167599 -3.345530 3,400 84 46
2018-02-20 10:42:09 GMT 56.166920 -3.345680 3,450 84 46
2018-02-20 10:41:43 GMT 56.164471 -3.348200 3,600 84 46
2018-02-20 10:41:38 GMT 56.164120 -3.349620 3,650 84 46
2018-02-20 10:41:30 GMT 56.163780 -3.352980 3,969 84 46
2018-02-20 10:41:14 GMT 56.163349 -3.359400 3,750 183 78
2018-02-20 10:41:07 GMT 56.163052 -3.361570 3,800 183 78
2018-02-20 10:40:57 GMT 56.163132 -3.371280 3,850 183 78
2018-02-20 10:40:46 GMT 56.162998 -3.370280 3,900 183 78
2018-02-20 10:40:38 GMT 56.163570 -3.374300 3,950 183 78
2018-02-20 10:40:22 GMT 56.165031 -3.383030 4,025 183 78
2018-02-20 10:40:18 GMT 56.165771 -3.386050 4,050 183 78
2018-02-20 10:40:06 GMT 56.168499 -3.393850 4,100 183 78
2018-02-20 10:39:53 GMT 56.171829 -3.398550 4,150 183 78
2018-02-20 10:39:43 GMT 56.174622 -3.400650 4,200 183 78
2018-02-20 10:39:34 GMT 56.179829 -3.403050 4,300 183 78
2018-02-20 10:39:23 GMT 56.180969 -3.403470 4,375 183 78
2018-02-20 10:39:08 GMT 56.188549 -3.405350 4,450 183 78
2018-02-20 10:38:50 GMT 56.195930 -3.404950 4,575 183 78
2018-02-20 10:38:46 GMT 56.194469 -3.405180 5,097 183 78
2018-02-20 10:38:33 GMT 56.201931 -3.402350 4,700 195 73
2018-02-20 10:38:25 GMT 56.201618 -3.402520 5,015 195 73
2018-02-20 10:38:15 GMT 56.206348 -3.400720 4,800 198 74
2018-02-20 10:38:00 GMT 56.209579 -3.399170 4,850 198 74
2018-02-20 10:37:52 GMT 56.212170 -3.397670 4,850 198 74
2018-02-20 10:37:44 GMT 56.217449 -3.394800 4,875 198 74
2018-02-20 10:37:35 GMT 56.218128 -3.394430 5,317 198 74
2018-02-20 10:37:24 GMT 56.223228 -3.391120 5,218 204 71
2018-02-20 10:37:07 GMT 56.226681 -3.387880 5,000 210 70
2018-02-20 10:36:53 GMT 56.230301 -3.384070 5,464 210 70
2018-02-20 10:36:42 GMT 56.233452 -3.380970 5,100 157 76
2018-02-20 10:36:31 GMT 56.236469 -3.377870 5,150 157 76
2018-02-20 10:36:19 GMT 56.240898 -3.372200 5,200 157 76
2018-02-20 10:36:10 GMT 56.243050 -3.368480 5,250 157 76
2018-02-20 10:36:00 GMT 56.244598 -3.365870 5,300 157 76
2018-02-20 10:35:50 GMT 56.245998 -3.363680 5,375 157 76
2018-02-20 10:35:40 GMT 56.249432 -3.357670 5,450 157 76
2018-02-20 10:35:31 GMT 56.251331 -3.352830 5,550 157 76
2018-02-20 10:35:18 GMT 56.251869 -3.350820 5,625 157 76
2018-02-20 10:35:09 GMT 56.252480 -3.346650 5,725 157 76
2018-02-20 10:34:54 GMT 56.252319 -3.342220 5,800 157 76
2018-02-20 10:34:49 GMT 56.251331 -3.340520 5,875 157 76
2018-02-20 10:34:39 GMT 56.251122 -3.340450 5,975 157 76
2018-02-20 10:34:27 GMT 56.249249 -3.344370 6,075 157 76
2018-02-20 10:34:18 GMT 56.249168 -3.345120 6,150 157 76
2018-02-20 10:34:08 GMT 56.249748 -3.349600 6,225 157 76
2018-02-20 10:33:55 GMT 56.253471 -3.353520 6,350 157 76
2018-02-20 10:33:48 GMT 56.256779 -3.355550 6,425 157 76
2018-02-20 10:33:36 GMT 56.259571 -3.357900 6,525 157 76
2018-02-20 10:33:28 GMT 56.261929 -3.360120 6,600 157 76
2018-02-20 10:33:17 GMT 56.265221 -3.363120 6,675 157 76
2018-02-20 10:33:07 GMT 56.268620 -3.365650 6,750 157 76
2018-02-20 10:32:57 GMT 56.272800 -3.368800 6,800 157 76
2018-02-20 10:32:46 GMT 56.275028 -3.370680 6,825 157 76
2018-02-20 10:32:36 GMT 56.278252 -3.373520 6,850 157 76
2018-02-20 10:32:27 GMT 56.281422 -3.376420 7,068 157 76
2018-02-20 10:32:16 GMT 56.284801 -3.378820 6,925 181 80
2018-02-20 10:32:02 GMT 56.290031 -3.381870 6,975 181 80
2018-02-20 10:31:54 GMT 56.293228 -3.383380 7,025 181 80
2018-02-20 10:31:46 GMT 56.298130 -3.383920 7,282 181 80
2018-02-20 10:31:35 GMT 56.303268 -3.382750 7,100 356 34
2018-02-20 10:31:25 GMT 56.303631 -3.382630 7,150 356 34
2018-02-20 10:31:14 GMT 56.307270 -3.381400 7,200 356 34
2018-02-20 10:31:03 GMT 56.313301 -3.375950 7,250 356 34
2018-02-20 10:30:54 GMT 56.315269 -3.372120 7,250 356 34
2018-02-20 10:30:42 GMT 56.316750 -3.367830 7,250 356 34
2018-02-20 10:30:29 GMT 56.317570 -3.363050 7,300 356 34
2018-02-20 10:30:17 GMT 56.317402 -3.358050 7,275 356 34
2018-02-20 10:30:11 GMT 56.316700 -3.356370 7,250 356 34
2018-02-20 10:29:52 GMT 56.313499 -3.355050 7,150 356 34
2018-02-20 10:29:41 GMT 56.312450 -3.354770 7,050 356 34
2018-02-20 10:29:31 GMT 56.310879 -3.354430 7,045 356 34
2018-02-20 10:29:20 GMT 56.309029 -3.354100 6,850 335 32
2018-02-20 10:29:10 GMT 56.307400 -3.353350 6,775 335 32
2018-02-20 10:29:02 GMT 56.305729 -3.352180 6,744 335 32
2018-02-20 10:28:50 GMT 56.303478 -3.350370 6,575 338 33
2018-02-20 10:28:40 GMT 56.303650 -3.350450 6,596 338 33
2018-02-20 10:28:30 GMT 56.302231 -3.349650 6,701 347 31
2018-02-20 10:28:21 GMT 56.300049 -3.348970 6,403 355 33
2018-02-20 10:28:09 GMT 56.299122 -3.348870 6,200 359 38
2018-02-20 10:27:59 GMT 56.297401 -3.348870 6,222 359 38
2018-02-20 10:27:47 GMT 56.295101 -3.348670 6,025 2 29
2018-02-20 10:27:39 GMT 56.294102 -3.348670 6,098 2 29
2018-02-20 10:27:29 GMT 56.292450 -3.348850 5,986 1 30
2018-02-20 10:27:17 GMT 56.288429 -3.347930 5,775 7 30
2018-02-20 10:27:03 GMT 56.289322 -3.347970 5,675 7 30
2018-02-20 10:26:58 GMT 56.287369 -3.348200 5,681 7 30
2018-02-20 10:26:44 GMT 56.286430 -3.348350 5,500 1 26
2018-02-20 10:26:36 GMT 56.284630 -3.348380 5,458 1 26
2018-02-20 10:26:28 GMT 56.283878 -3.348380 5,386 2 27
2018-02-20 10:26:14 GMT 56.281830 -3.349380 5,125 16 31
2018-02-20 10:26:06 GMT 56.280621 -3.350130 5,084 16 31
2018-02-20 10:25:54 GMT 56.279781 -3.350500 4,875 5 28
2018-02-20 10:25:45 GMT 56.278580 -3.350780 5,074 5 28
2018-02-20 10:25:36 GMT 56.275471 -3.352330 4,661 27 35
2018-02-20 10:25:25 GMT 56.275028 -3.352770 4,638 31 35
2018-02-20 10:25:12 GMT 56.273472 -3.354800 4,400 307 30
2018-02-20 10:25:00 GMT 56.271980 -3.356600 4,400 307 30
2018-02-20 10:24:50 GMT 56.270550 -3.357000 4,375 307 30
2018-02-20 10:24:39 GMT 56.269932 -3.356250 4,300 307 30
2018-02-20 10:24:32 GMT 56.269550 -3.354500 4,175 307 30
2018-02-20 10:24:16 GMT 56.268822 -3.347970 4,050 307 30
2018-02-20 10:24:13 GMT 56.268200 -3.346470 4,051 307 30
2018-02-20 10:23:59 GMT 56.267879 -3.345650 3,850 315 37
2018-02-20 10:23:53 GMT 56.266850 -3.343580 3,847 315 37
2018-02-20 10:23:42 GMT 56.265869 -3.342150 3,759 326 36
2018-02-20 10:23:28 GMT 56.263802 -3.341030 3,500 74 58
2018-02-20 10:23:17 GMT 56.262100 -3.341430 3,475 74 58
2018-02-20 10:23:11 GMT 56.261051 -3.341980 3,400 74 58
2018-02-20 10:23:02 GMT 56.259380 -3.343850 3,250 74 58
2018-02-20 10:22:49 GMT 56.257599 -3.351430 3,175 74 58
2018-02-20 10:22:40 GMT 56.257431 -3.352320 3,100 74 58
2018-02-20 10:22:32 GMT 56.256680 -3.356380 3,355 74 58
2018-02-20 10:22:21 GMT 56.255569 -3.362080 2,900 52 46
2018-02-20 10:22:11 GMT 56.254700 -3.364900 2,850 52 46
2018-02-20 10:21:57 GMT 56.253250 -3.370070 2,725 52 46
2018-02-20 10:21:50 GMT 56.252419 -3.372550 3,103 52 46
2018-02-20 10:21:39 GMT 56.250919 -3.375380 2,890 42 38
2018-02-20 10:21:29 GMT 56.248920 -3.378220 2,863 35 39
2018-02-20 10:21:18 GMT 56.247478 -3.379900 2,834 30 42
2018-02-20 10:21:08 GMT 56.245468 -3.382000 2,824 34 41
2018-02-20 10:20:59 GMT 56.244701 -3.382950 2,818 33 37
2018-02-20 10:20:44 GMT 56.242722 -3.383430 2,772 339 27
2018-02-20 10:20:38 GMT 56.242031 -3.382780 2,762 323 26
2018-02-20 10:20:26 GMT 56.240929 -3.380950 2,703 323 28
2018-02-20 10:20:18 GMT 56.239601 -3.379400 2,657 321 30
2018-02-20 10:20:08 GMT 56.238579 -3.377950 2,581 331 33
2018-02-20 10:19:56 GMT 56.237122 -3.376930 2,522 340 33
2018-02-20 10:19:45 GMT 56.235600 -3.375550 2,483 329 33
2018-02-20 10:19:32 GMT 56.233379 -3.373570 2,175 344 34
2018-02-20 10:19:25 GMT 56.230881 -3.372180 2,303 344 34
2018-02-20 10:19:16 GMT 56.230251 -3.371850 2,270 344 36
2018-02-20 10:19:02 GMT 56.227970 -3.370980 1,975 324 31
2018-02-20 10:18:51 GMT 56.225731 -3.370080 1,875 324 31
2018-02-20 10:18:38 GMT 56.223980 -3.369300 1,800 324 31
2018-02-20 10:18:31 GMT 56.222500 -3.368650 1,725 324 31
2018-02-20 10:18:14 GMT 56.220951 -3.367170 1,896 324 31
2018-02-20 10:18:03 GMT 56.218479 -3.364150 1,745 327 32

Making use of Plane Finder data

You are free to use the raw flight data, aircraft information and images provided in this report for your own purposes provided the data is correctly attributed to Plane Finder. We ask that you please credit Plane Finder and link to planefinder.net in close proximity to the content.

Optionally one of the following logos (no smaller then 150x24px) can be used and must link to planefinder.net

Embedding the Plane Finder map

You are welcome to embed the Plane Finder playback map on your website to offer visitors a more interactive experience. We suggest using the following HTML code:

<iframe src="//planefinder.net/data/report/GBSUO-G-BSUO-7700-squawk-2018-02-20/map" width="800" height="600" seamless="seamless"></iframe>

Where our data comes from

Plane Finder has a global network of data feeds and antenna radars that receive data broadcast directly from aircraft. The primary technologies used are ADS-B and MLAT. We also show feeds from the FAA and a FLARM glider feed.

Click here to find out more about the Plane Finder network.

How we collect our data